createdAt,value
2019-01-19T00:05:19.241Z,4.23
2019-01-19T00:10:30.533Z,4.47
2019-01-19T00:15:41.020Z,5.20
2019-01-19T00:20:59.244Z,4.97
2019-01-19T00:26:17.604Z,4.80
2019-01-19T00:31:35.914Z,4.03
2019-01-19T00:36:45.452Z,4.13
2019-01-19T00:42:07.571Z,4.73
2019-01-19T00:47:26.399Z,4.43
2019-01-19T00:52:44.158Z,4.90
2019-01-19T00:58:09.680Z,4.13
2019-01-19T01:03:23.566Z,4.60
2019-01-19T01:08:42.422Z,4.03
2019-01-19T01:14:07.749Z,4.43
2019-01-19T01:19:20.687Z,4.00
2019-01-19T01:24:43.679Z,4.40
2019-01-19T01:30:20.707Z,3.87
2019-01-19T01:35:47.681Z,4.30
2019-01-19T01:41:02.464Z,4.33
2019-01-19T01:46:12.800Z,4.60
2019-01-19T01:51:28.786Z,4.50
2019-01-19T01:56:36.032Z,4.60
2019-01-19T02:01:46.486Z,4.20
2019-01-19T02:06:57.732Z,4.60
2019-01-19T02:12:32.317Z,3.90
2019-01-19T02:17:49.612Z,4.10
2019-01-19T02:23:07.109Z,4.40
2019-01-19T02:28:27.642Z,4.33
2019-01-19T02:33:38.644Z,5.10
2019-01-19T02:38:49.037Z,4.00
2019-01-19T02:44:17.849Z,4.50
2019-01-19T02:49:33.979Z,4.13
2019-01-19T02:54:55.349Z,5.00
2019-01-19T03:00:25.618Z,4.00
2019-01-19T03:05:36.522Z,4.00
2019-01-19T03:11:06.826Z,3.53
2019-01-19T03:16:28.548Z,4.63
2019-01-19T03:21:46.709Z,3.80
2019-01-19T03:26:56.900Z,3.50
2019-01-19T03:32:10.347Z,3.60
2019-01-19T03:37:40.006Z,4.47
2019-01-19T03:42:53.534Z,3.70
2019-01-19T03:48:08.954Z,3.37
2019-01-19T03:53:24.956Z,3.50
2019-01-19T03:58:51.560Z,4.30
2019-01-19T04:04:18.217Z,3.90
2019-01-19T04:09:27.750Z,4.30
2019-01-19T04:15:02.345Z,3.80
2019-01-19T04:20:22.066Z,4.63
2019-01-19T04:25:34.675Z,4.67
2019-01-19T04:30:42.659Z,4.53
2019-01-19T04:35:51.372Z,5.03
2019-01-19T04:41:00.648Z,4.73
2019-01-19T04:46:09.690Z,6.13
2019-01-19T04:51:18.123Z,5.67
2019-01-19T04:56:28.014Z,5.13
2019-01-19T05:01:40.815Z,6.07
2019-01-19T05:06:48.047Z,5.37
2019-01-19T05:11:55.870Z,5.73
2019-01-19T05:17:03.954Z,5.77
2019-01-19T05:22:12.447Z,5.70
2019-01-19T05:27:20.364Z,5.40
2019-01-19T05:32:30.072Z,5.60
2019-01-19T05:37:38.970Z,6.13
2019-01-19T05:42:55.953Z,6.20
2019-01-19T05:48:01.841Z,5.23
2019-01-19T05:53:10.490Z,5.90
2019-01-19T05:58:20.294Z,5.90
2019-01-19T06:03:31.124Z,5.80
2019-01-19T06:08:39.629Z,5.50
2019-01-19T06:13:46.667Z,5.37
2019-01-19T06:18:53.185Z,5.23
2019-01-19T06:23:59.582Z,5.57
2019-01-19T06:29:07.565Z,5.87
2019-01-19T06:34:15.185Z,6.90
2019-01-19T06:39:22.254Z,5.90
2019-01-19T06:44:28.913Z,6.73
2019-01-19T06:49:35.452Z,6.73
2019-01-19T06:54:43.323Z,6.47
2019-01-19T06:59:51.253Z,7.10
2019-01-19T07:05:00.510Z,6.63
2019-01-19T07:10:11.180Z,7.47
2019-01-19T07:15:20.398Z,8.43
2019-01-19T07:20:31.170Z,7.47
2019-01-19T07:25:41.330Z,7.40
2019-01-19T07:30:48.776Z,7.07
2019-01-19T07:35:57.057Z,7.30
2019-01-19T07:41:05.210Z,7.63
2019-01-19T07:46:13.219Z,8.67
2019-01-19T07:51:21.873Z,9.13
2019-01-19T07:56:30.127Z,8.47
2019-01-19T08:01:41.868Z,8.73
2019-01-19T08:06:49.325Z,9.23
2019-01-19T08:11:57.503Z,10.00
2019-01-19T08:17:09.488Z,10.13
2019-01-19T08:22:17.681Z,9.33
2019-01-19T08:27:27.136Z,9.70
2019-01-19T08:32:35.741Z,9.50
2019-01-19T08:37:43.815Z,10.00
2019-01-19T08:42:52.871Z,9.83
2019-01-19T08:48:01.470Z,10.77
2019-01-19T08:53:09.356Z,10.73
2019-01-19T08:58:17.369Z,11.13
2019-01-19T09:03:34.571Z,11.60
2019-01-19T09:08:51.491Z,10.90
2019-01-19T09:14:00.959Z,10.27
2019-01-19T09:19:08.860Z,11.80
2019-01-19T09:24:18.172Z,11.83
2019-01-19T09:29:26.583Z,11.97
2019-01-19T09:34:36.553Z,13.07
2019-01-19T09:39:44.851Z,12.57
2019-01-19T09:44:53.039Z,14.23
2019-01-19T09:50:01.468Z,12.23
2019-01-19T09:55:11.448Z,13.53
2019-01-19T10:00:22.112Z,13.10
2019-01-19T10:05:29.956Z,13.80
2019-01-19T10:10:37.314Z,14.63
2019-01-19T10:15:45.559Z,14.73
2019-01-19T10:20:53.161Z,15.00
2019-01-19T10:26:01.540Z,14.03
2019-01-19T10:31:09.880Z,14.47
2019-01-19T10:36:21.490Z,13.97
2019-01-19T10:41:31.340Z,14.23
2019-01-19T10:46:42.750Z,13.70
2019-01-19T10:51:59.341Z,14.27
2019-01-19T10:57:06.693Z,14.37
2019-01-19T11:02:13.909Z,12.97
2019-01-19T11:07:22.480Z,13.57
2019-01-19T11:12:30.944Z,12.63
2019-01-19T11:17:39.072Z,14.70
2019-01-19T11:22:49.455Z,13.20
2019-01-19T11:27:57.078Z,13.03
2019-01-19T11:33:04.232Z,13.47
2019-01-19T11:38:19.897Z,13.13
2019-01-19T11:43:21.458Z,12.83
2019-01-19T11:48:29.594Z,12.97
2019-01-19T11:53:37.001Z,12.00
2019-01-19T11:58:43.452Z,11.73
2019-01-19T12:03:52.948Z,11.07
2019-01-19T12:09:00.779Z,11.60
2019-01-19T12:14:09.176Z,9.80
2019-01-19T12:19:16.208Z,10.87
2019-01-19T12:24:22.790Z,9.97
2019-01-19T12:29:36.730Z,9.07
2019-01-19T12:34:44.536Z,9.70
2019-01-19T12:39:52.866Z,9.67
2019-01-19T12:45:00.821Z,8.67
2019-01-19T12:50:11.581Z,7.03
2019-01-19T12:55:22.474Z,7.87
2019-01-19T13:00:30.699Z,9.33
2019-01-19T13:05:45.732Z,6.90
2019-01-19T13:11:05.215Z,7.97
2019-01-19T13:16:48.431Z,7.53
2019-01-19T13:22:03.453Z,8.30
2019-01-19T13:27:16.927Z,7.20
2019-01-19T13:32:55.046Z,8.27
2019-01-19T13:38:12.618Z,8.40
2019-01-19T13:43:54.663Z,11.57
2019-01-19T13:49:08.998Z,8.80
2019-01-19T13:54:33.816Z,8.90
2019-01-19T13:59:53.975Z,9.20
2019-01-19T14:05:11.676Z,10.50
2019-01-19T14:10:41.856Z,11.37
2019-01-19T14:15:53.945Z,9.90
2019-01-19T14:21:31.257Z,10.37
2019-01-19T14:26:57.970Z,10.80
2019-01-19T14:32:25.262Z,11.60
2019-01-19T14:38:04.869Z,11.00
2019-01-19T14:43:34.466Z,10.27
2019-01-19T14:49:01.078Z,10.73
2019-01-19T14:54:42.244Z,11.27
2019-01-19T15:00:13.314Z,11.27
2019-01-19T15:05:31.809Z,15.87
2019-01-19T15:10:53.220Z,15.27
2019-01-19T15:16:04.206Z,15.70
2019-01-19T15:21:19.800Z,16.43
2019-01-19T15:26:40.830Z,15.30
2019-01-19T15:31:55.249Z,17.20
2019-01-19T15:37:14.245Z,16.10
2019-01-19T15:42:35.258Z,16.80
2019-01-19T15:47:44.641Z,17.60
2019-01-19T15:53:15.548Z,16.83
2019-01-19T15:58:43.881Z,17.57
2019-01-19T16:03:55.609Z,18.67
2019-01-19T16:09:07.459Z,16.60
2019-01-19T16:14:42.115Z,16.80
2019-01-19T16:20:03.255Z,17.73
2019-01-19T16:25:27.319Z,18.20
2019-01-19T16:31:02.472Z,17.57
2019-01-19T16:36:28.112Z,17.83
2019-01-19T16:41:49.976Z,16.33
2019-01-19T16:47:21.264Z,18.47
2019-01-19T16:52:48.925Z,17.63
2019-01-19T16:58:03.821Z,19.33
2019-01-19T17:03:24.877Z,19.70
2019-01-19T17:08:40.326Z,18.77
2019-01-19T17:13:58.029Z,18.37
2019-01-19T17:19:28.662Z,18.10
2019-01-19T17:25:02.260Z,19.50
2019-01-19T17:30:14.300Z,17.27
2019-01-19T17:35:39.742Z,16.40
2019-01-19T17:41:04.808Z,15.20
2019-01-19T17:46:17.201Z,15.47
2019-01-19T17:51:42.549Z,16.57
2019-01-19T17:56:57.337Z,14.53
2019-01-19T18:02:16.565Z,15.43
2019-01-19T18:07:42.434Z,14.60
2019-01-19T18:12:52.140Z,14.63
2019-01-19T18:18:11.077Z,14.40
2019-01-19T18:23:45.041Z,14.03
2019-01-19T18:29:09.400Z,13.90
2019-01-19T18:34:32.425Z,14.73
2019-01-19T18:39:54.836Z,15.37
2019-01-19T18:45:04.696Z,14.90
2019-01-19T18:50:18.430Z,14.07
2019-01-19T18:55:36.342Z,14.27
2019-01-19T19:00:50.833Z,14.30
2019-01-19T19:06:21.358Z,12.77
2019-01-19T19:11:35.744Z,13.97
2019-01-19T19:17:00.427Z,14.27
2019-01-19T19:22:29.637Z,13.57
2019-01-19T19:27:48.000Z,14.37
2019-01-19T19:33:08.877Z,13.83
2019-01-19T19:38:41.353Z,13.50
2019-01-19T19:44:08.019Z,13.40
2019-01-19T19:49:26.060Z,12.93
2019-01-19T19:54:33.152Z,12.07
2019-01-19T19:59:39.146Z,13.07
2019-01-19T20:04:45.239Z,12.87
2019-01-19T20:09:51.196Z,12.50
2019-01-19T20:14:59.548Z,12.73
2019-01-19T20:20:09.208Z,12.77
2019-01-19T20:25:15.235Z,13.30
2019-01-19T20:30:21.556Z,13.03
2019-01-19T20:35:27.449Z,12.17
2019-01-19T20:40:33.333Z,12.67
2019-01-19T20:45:39.468Z,13.03
2019-01-19T20:50:45.853Z,12.23
2019-01-19T20:55:52.039Z,12.30
2019-01-19T21:00:58.285Z,12.90
2019-01-19T21:06:05.253Z,13.90
2019-01-19T21:11:13.434Z,14.27
2019-01-19T21:16:19.463Z,14.30
2019-01-19T21:21:25.850Z,14.90
2019-01-19T21:26:32.369Z,13.40
2019-01-19T21:31:38.153Z,13.33
2019-01-19T21:36:44.785Z,14.23
2019-01-19T21:41:50.715Z,14.47
2019-01-19T21:46:57.629Z,15.03
2019-01-19T21:52:04.151Z,14.70
2019-01-19T21:57:10.436Z,14.83
2019-01-19T22:02:16.471Z,14.27
2019-01-19T22:07:22.619Z,14.33
2019-01-19T22:12:28.723Z,13.97
2019-01-19T22:17:39.450Z,14.63
2019-01-19T22:22:42.397Z,14.13
2019-01-19T22:27:49.102Z,15.67
2019-01-19T22:32:55.752Z,14.03
2019-01-19T22:38:01.553Z,14.70
2019-01-19T22:43:07.871Z,15.10
2019-01-19T22:48:13.665Z,14.30
2019-01-19T22:53:21.037Z,14.77
2019-01-19T22:58:27.507Z,14.80
2019-01-19T23:03:34.052Z,14.67
2019-01-19T23:08:42.017Z,15.03
2019-01-19T23:13:48.835Z,16.07
2019-01-19T23:18:55.087Z,17.33
2019-01-19T23:24:01.527Z,16.73
2019-01-19T23:29:07.098Z,16.47
2019-01-19T23:34:12.734Z,17.03
2019-01-19T23:39:19.571Z,16.20
2019-01-19T23:44:25.473Z,16.70
2019-01-19T23:49:32.437Z,18.47
2019-01-19T23:54:39.513Z,18.20
2019-01-19T23:59:47.314Z,17.47
